sensor_id;sensor_type;location;lat;lon;timestamp;P1;durP1;ratioP1;P2;durP2;ratioP2
3755;SDS011;1893;52.526;13.360;2024-03-02T00:00:18;71.27;;;40.57;;
3755;SDS011;1893;52.526;13.360;2024-03-02T00:02:46;74.83;;;38.00;;
3755;SDS011;1893;52.526;13.360;2024-03-02T00:05:16;77.00;;;39.40;;
3755;SDS011;1893;52.526;13.360;2024-03-02T00:07:55;70.30;;;38.00;;
3755;SDS011;1893;52.526;13.360;2024-03-02T00:10:23;65.97;;;36.80;;
3755;SDS011;1893;52.526;13.360;2024-03-02T00:12:54;75.47;;;40.87;;
3755;SDS011;1893;52.526;13.360;2024-03-02T00:15:42;65.53;;;37.20;;
3755;SDS011;1893;52.526;13.360;2024-03-02T00:18:18;60.27;;;37.70;;
3755;SDS011;1893;52.526;13.360;2024-03-02T00:20:45;67.43;;;36.20;;
3755;SDS011;1893;52.526;13.360;2024-03-02T00:23:13;67.57;;;39.47;;
3755;SDS011;1893;52.526;13.360;2024-03-02T00:25:41;72.20;;;41.20;;
3755;SDS011;1893;52.526;13.360;2024-03-02T00:28:24;70.13;;;41.30;;
3755;SDS011;1893;52.526;13.360;2024-03-02T00:31:03;70.73;;;38.80;;
3755;SDS011;1893;52.526;13.360;2024-03-02T00:33:37;66.57;;;38.83;;
3755;SDS011;1893;52.526;13.360;2024-03-02T00:36:08;67.20;;;38.33;;
3755;SDS011;1893;52.526;13.360;2024-03-02T00:38:40;71.03;;;40.60;;
3755;SDS011;1893;52.526;13.360;2024-03-02T00:41:22;70.83;;;37.53;;
3755;SDS011;1893;52.526;13.360;2024-03-02T00:44:05;69.60;;;39.33;;
3755;SDS011;1893;52.526;13.360;2024-03-02T00:46:33;67.73;;;38.43;;
3755;SDS011;1893;52.526;13.360;2024-03-02T00:49:00;66.33;;;38.70;;
3755;SDS011;1893;52.526;13.360;2024-03-02T00:51:31;73.70;;;40.40;;
3755;SDS011;1893;52.526;13.360;2024-03-02T00:53:59;72.93;;;38.93;;
3755;SDS011;1893;52.526;13.360;2024-03-02T00:56:26;69.87;;;40.53;;
3755;SDS011;1893;52.526;13.360;2024-03-02T00:58:52;80.63;;;39.20;;
3755;SDS011;1893;52.526;13.360;2024-03-02T01:01:18;67.43;;;38.47;;
3755;SDS011;1893;52.526;13.360;2024-03-02T01:03:47;67.43;;;40.80;;
3755;SDS011;1893;52.526;13.360;2024-03-02T01:06:14;70.37;;;38.60;;
3755;SDS011;1893;52.526;13.360;2024-03-02T01:08:40;67.83;;;39.17;;
3755;SDS011;1893;52.526;13.360;2024-03-02T01:11:05;74.40;;;41.53;;
3755;SDS011;1893;52.526;13.360;2024-03-02T01:13:31;81.33;;;40.17;;
3755;SDS011;1893;52.526;13.360;2024-03-02T01:15:57;70.40;;;38.13;;
3755;SDS011;1893;52.526;13.360;2024-03-02T01:18:23;79.47;;;38.63;;
3755;SDS011;1893;52.526;13.360;2024-03-02T01:20:50;77.40;;;41.27;;
3755;SDS011;1893;52.526;13.360;2024-03-02T01:23:21;72.07;;;41.90;;
3755;SDS011;1893;52.526;13.360;2024-03-02T01:25:47;72.97;;;40.70;;
3755;SDS011;1893;52.526;13.360;2024-03-02T01:28:13;68.07;;;40.87;;
3755;SDS011;1893;52.526;13.360;2024-03-02T01:30:39;73.80;;;43.30;;
3755;SDS011;1893;52.526;13.360;2024-03-02T01:33:05;72.60;;;42.37;;
3755;SDS011;1893;52.526;13.360;2024-03-02T01:35:31;76.17;;;43.33;;
3755;SDS011;1893;52.526;13.360;2024-03-02T01:37:57;72.93;;;43.20;;
3755;SDS011;1893;52.526;13.360;2024-03-02T01:40:23;79.80;;;43.87;;
3755;SDS011;1893;52.526;13.360;2024-03-02T01:42:52;79.87;;;44.03;;
3755;SDS011;1893;52.526;13.360;2024-03-02T01:45:23;77.80;;;43.20;;
3755;SDS011;1893;52.526;13.360;2024-03-02T01:47:49;75.00;;;42.47;;
3755;SDS011;1893;52.526;13.360;2024-03-02T01:50:15;71.77;;;44.33;;
3755;SDS011;1893;52.526;13.360;2024-03-02T01:52:49;81.63;;;46.60;;
3755;SDS011;1893;52.526;13.360;2024-03-02T01:55:15;80.03;;;46.97;;
3755;SDS011;1893;52.526;13.360;2024-03-02T01:57:40;79.77;;;45.87;;
3755;SDS011;1893;52.526;13.360;2024-03-02T02:00:06;80.00;;;46.33;;
3755;SDS011;1893;52.526;13.360;2024-03-02T02:02:32;93.10;;;49.30;;
3755;SDS011;1893;52.526;13.360;2024-03-02T02:04:58;82.43;;;45.47;;
3755;SDS011;1893;52.526;13.360;2024-03-02T02:07:23;81.80;;;45.93;;
3755;SDS011;1893;52.526;13.360;2024-03-02T02:09:49;89.97;;;48.97;;
3755;SDS011;1893;52.526;13.360;2024-03-02T02:12:15;85.20;;;47.20;;
3755;SDS011;1893;52.526;13.360;2024-03-02T02:14:46;85.47;;;48.33;;
3755;SDS011;1893;52.526;13.360;2024-03-02T02:17:14;95.23;;;48.63;;
3755;SDS011;1893;52.526;13.360;2024-03-02T02:19:40;101.40;;;51.17;;
3755;SDS011;1893;52.526;13.360;2024-03-02T02:22:06;87.00;;;49.27;;
3755;SDS011;1893;52.526;13.360;2024-03-02T02:24:32;98.33;;;50.70;;
3755;SDS011;1893;52.526;13.360;2024-03-02T02:26:57;99.33;;;51.63;;
3755;SDS011;1893;52.526;13.360;2024-03-02T02:29:23;89.93;;;50.00;;
3755;SDS011;1893;52.526;13.360;2024-03-02T02:31:48;89.37;;;52.17;;
3755;SDS011;1893;52.526;13.360;2024-03-02T02:34:14;83.20;;;50.30;;
3755;SDS011;1893;52.526;13.360;2024-03-02T02:36:40;91.33;;;50.40;;
3755;SDS011;1893;52.526;13.360;2024-03-02T02:39:09;96.83;;;51.33;;
3755;SDS011;1893;52.526;13.360;2024-03-02T02:41:37;92.03;;;51.00;;
3755;SDS011;1893;52.526;13.360;2024-03-02T02:44:03;86.57;;;50.97;;
3755;SDS011;1893;52.526;13.360;2024-03-02T02:46:29;91.80;;;52.10;;
3755;SDS011;1893;52.526;13.360;2024-03-02T02:48:55;100.33;;;52.03;;
3755;SDS011;1893;52.526;13.360;2024-03-02T02:51:21;88.53;;;50.20;;
3755;SDS011;1893;52.526;13.360;2024-03-02T02:53:46;90.43;;;51.20;;
3755;SDS011;1893;52.526;13.360;2024-03-02T02:56:12;93.50;;;50.27;;
3755;SDS011;1893;52.526;13.360;2024-03-02T02:58:39;92.03;;;51.10;;
3755;SDS011;1893;52.526;13.360;2024-03-02T03:01:05;95.17;;;49.57;;
3755;SDS011;1893;52.526;13.360;2024-03-02T03:03:32;88.87;;;49.57;;
3755;SDS011;1893;52.526;13.360;2024-03-02T03:05:58;81.63;;;47.57;;
3755;SDS011;1893;52.526;13.360;2024-03-02T03:08:23;92.03;;;49.40;;
3755;SDS011;1893;52.526;13.360;2024-03-02T03:10:49;95.03;;;49.27;;
3755;SDS011;1893;52.526;13.360;2024-03-02T03:13:15;98.63;;;48.67;;
3755;SDS011;1893;52.526;13.360;2024-03-02T03:15:40;92.13;;;51.67;;
3755;SDS011;1893;52.526;13.360;2024-03-02T03:18:06;81.67;;;49.07;;
3755;SDS011;1893;52.526;13.360;2024-03-02T03:20:38;91.63;;;49.10;;
3755;SDS011;1893;52.526;13.360;2024-03-02T03:23:03;100.50;;;49.63;;
3755;SDS011;1893;52.526;13.360;2024-03-02T03:25:29;91.37;;;50.00;;
3755;SDS011;1893;52.526;13.360;2024-03-02T03:27:55;84.93;;;48.60;;
3755;SDS011;1893;52.526;13.360;2024-03-02T03:30:21;96.43;;;50.70;;
3755;SDS011;1893;52.526;13.360;2024-03-02T03:32:46;96.77;;;49.73;;
3755;SDS011;1893;52.526;13.360;2024-03-02T03:35:13;85.67;;;49.60;;
3755;SDS011;1893;52.526;13.360;2024-03-02T03:37:40;92.10;;;48.53;;
3755;SDS011;1893;52.526;13.360;2024-03-02T03:40:06;90.37;;;49.83;;
3755;SDS011;1893;52.526;13.360;2024-03-02T03:42:35;84.50;;;48.63;;
3755;SDS011;1893;52.526;13.360;2024-03-02T03:45:04;88.77;;;48.33;;
3755;SDS011;1893;52.526;13.360;2024-03-02T03:47:31;82.43;;;49.93;;
3755;SDS011;1893;52.526;13.360;2024-03-02T03:49:57;82.97;;;48.03;;
3755;SDS011;1893;52.526;13.360;2024-03-02T03:52:23;86.03;;;46.57;;
3755;SDS011;1893;52.526;13.360;2024-03-02T03:54:49;75.87;;;44.43;;
3755;SDS011;1893;52.526;13.360;2024-03-02T03:57:14;86.23;;;46.30;;
3755;SDS011;1893;52.526;13.360;2024-03-02T03:59:40;86.27;;;46.30;;
3755;SDS011;1893;52.526;13.360;2024-03-02T04:02:06;87.27;;;47.43;;
3755;SDS011;1893;52.526;13.360;2024-03-02T04:04:33;75.80;;;44.40;;
3755;SDS011;1893;52.526;13.360;2024-03-02T04:06:58;81.63;;;45.00;;
3755;SDS011;1893;52.526;13.360;2024-03-02T04:09:24;86.23;;;46.33;;
3755;SDS011;1893;52.526;13.360;2024-03-02T04:11:50;87.90;;;44.80;;
3755;SDS011;1893;52.526;13.360;2024-03-02T04:14:17;81.03;;;45.87;;
3755;SDS011;1893;52.526;13.360;2024-03-02T04:16:43;77.80;;;44.67;;
3755;SDS011;1893;52.526;13.360;2024-03-02T04:19:09;80.23;;;42.97;;
3755;SDS011;1893;52.526;13.360;2024-03-02T04:21:34;72.77;;;43.83;;
3755;SDS011;1893;52.526;13.360;2024-03-02T04:24:00;73.57;;;44.43;;
3755;SDS011;1893;52.526;13.360;2024-03-02T04:26:27;72.50;;;42.30;;
3755;SDS011;1893;52.526;13.360;2024-03-02T04:28:53;75.90;;;42.03;;
3755;SDS011;1893;52.526;13.360;2024-03-02T04:31:19;72.83;;;43.17;;
3755;SDS011;1893;52.526;13.360;2024-03-02T04:33:45;67.60;;;41.97;;
3755;SDS011;1893;52.526;13.360;2024-03-02T04:36:11;74.00;;;41.10;;
3755;SDS011;1893;52.526;13.360;2024-03-02T04:38:37;73.27;;;41.90;;
3755;SDS011;1893;52.526;13.360;2024-03-02T04:41:04;69.67;;;42.57;;
3755;SDS011;1893;52.526;13.360;2024-03-02T04:43:31;69.80;;;41.17;;
3755;SDS011;1893;52.526;13.360;2024-03-02T04:45:57;69.83;;;39.43;;
3755;SDS011;1893;52.526;13.360;2024-03-02T04:48:23;67.67;;;39.67;;
3755;SDS011;1893;52.526;13.360;2024-03-02T04:50:49;70.37;;;41.40;;
3755;SDS011;1893;52.526;13.360;2024-03-02T04:53:15;74.23;;;42.13;;
3755;SDS011;1893;52.526;13.360;2024-03-02T04:55:40;66.33;;;40.03;;
3755;SDS011;1893;52.526;13.360;2024-03-02T04:58:06;69.03;;;39.47;;
3755;SDS011;1893;52.526;13.360;2024-03-02T05:00:32;68.93;;;38.93;;
3755;SDS011;1893;52.526;13.360;2024-03-02T05:02:58;66.13;;;39.27;;
3755;SDS011;1893;52.526;13.360;2024-03-02T05:05:23;77.37;;;40.57;;
3755;SDS011;1893;52.526;13.360;2024-03-02T05:07:49;73.93;;;42.20;;
3755;SDS011;1893;52.526;13.360;2024-03-02T05:10:14;72.03;;;40.60;;
3755;SDS011;1893;52.526;13.360;2024-03-02T05:12:40;71.87;;;40.37;;
3755;SDS011;1893;52.526;13.360;2024-03-02T05:15:09;75.90;;;40.73;;
3755;SDS011;1893;52.526;13.360;2024-03-02T05:17:36;66.30;;;40.57;;
3755;SDS011;1893;52.526;13.360;2024-03-02T05:20:03;77.83;;;43.30;;
3755;SDS011;1893;52.526;13.360;2024-03-02T05:22:29;69.43;;;41.33;;
3755;SDS011;1893;52.526;13.360;2024-03-02T05:24:55;82.40;;;40.63;;
3755;SDS011;1893;52.526;13.360;2024-03-02T05:27:21;78.40;;;42.83;;
3755;SDS011;1893;52.526;13.360;2024-03-02T05:29:47;84.30;;;45.63;;
3755;SDS011;1893;52.526;13.360;2024-03-02T05:32:12;79.33;;;44.47;;
3755;SDS011;1893;52.526;13.360;2024-03-02T05:34:38;78.20;;;43.60;;
3755;SDS011;1893;52.526;13.360;2024-03-02T05:37:03;79.03;;;45.17;;
3755;SDS011;1893;52.526;13.360;2024-03-02T05:39:29;85.33;;;45.80;;
3755;SDS011;1893;52.526;13.360;2024-03-02T05:41:54;91.77;;;48.20;;
3755;SDS011;1893;52.526;13.360;2024-03-02T05:44:20;101.00;;;48.47;;
3755;SDS011;1893;52.526;13.360;2024-03-02T05:46:47;94.87;;;50.97;;
3755;SDS011;1893;52.526;13.360;2024-03-02T05:49:13;88.93;;;47.57;;
3755;SDS011;1893;52.526;13.360;2024-03-02T05:51:38;85.13;;;47.20;;
3755;SDS011;1893;52.526;13.360;2024-03-02T05:54:04;93.43;;;48.67;;
3755;SDS011;1893;52.526;13.360;2024-03-02T05:56:30;97.67;;;51.80;;
3755;SDS011;1893;52.526;13.360;2024-03-02T05:58:55;104.80;;;51.57;;
3755;SDS011;1893;52.526;13.360;2024-03-02T06:01:40;91.93;;;47.60;;
3755;SDS011;1893;52.526;13.360;2024-03-02T06:04:08;101.70;;;50.90;;
3755;SDS011;1893;52.526;13.360;2024-03-02T06:06:34;107.63;;;51.80;;
3755;SDS011;1893;52.526;13.360;2024-03-02T06:09:03;103.37;;;50.10;;
3755;SDS011;1893;52.526;13.360;2024-03-02T06:11:40;97.43;;;49.83;;
3755;SDS011;1893;52.526;13.360;2024-03-02T06:14:07;104.33;;;50.70;;
3755;SDS011;1893;52.526;13.360;2024-03-02T06:16:33;98.57;;;51.17;;
3755;SDS011;1893;52.526;13.360;2024-03-02T06:18:59;107.20;;;51.40;;
3755;SDS011;1893;52.526;13.360;2024-03-02T06:21:26;105.90;;;52.63;;
3755;SDS011;1893;52.526;13.360;2024-03-02T06:23:52;114.70;;;53.20;;
3755;SDS011;1893;52.526;13.360;2024-03-02T06:26:18;103.43;;;51.80;;
3755;SDS011;1893;52.526;13.360;2024-03-02T06:28:44;106.20;;;54.27;;
3755;SDS011;1893;52.526;13.360;2024-03-02T06:31:10;90.20;;;49.77;;
3755;SDS011;1893;52.526;13.360;2024-03-02T06:33:36;106.23;;;52.80;;
3755;SDS011;1893;52.526;13.360;2024-03-02T06:36:01;98.73;;;50.60;;
3755;SDS011;1893;52.526;13.360;2024-03-02T06:38:28;99.23;;;51.47;;
3755;SDS011;1893;52.526;13.360;2024-03-02T06:40:53;112.57;;;53.50;;
3755;SDS011;1893;52.526;13.360;2024-03-02T06:43:20;113.43;;;52.37;;
3755;SDS011;1893;52.526;13.360;2024-03-02T06:45:48;100.47;;;52.20;;
3755;SDS011;1893;52.526;13.360;2024-03-02T06:48:17;98.07;;;50.00;;
3755;SDS011;1893;52.526;13.360;2024-03-02T06:50:46;108.77;;;49.83;;
3755;SDS011;1893;52.526;13.360;2024-03-02T06:53:15;93.17;;;52.13;;
3755;SDS011;1893;52.526;13.360;2024-03-02T06:55:44;89.40;;;49.30;;
3755;SDS011;1893;52.526;13.360;2024-03-02T06:58:14;95.70;;;48.40;;
3755;SDS011;1893;52.526;13.360;2024-03-02T07:00:40;91.27;;;48.13;;
3755;SDS011;1893;52.526;13.360;2024-03-02T07:03:07;90.30;;;47.07;;
3755;SDS011;1893;52.526;13.360;2024-03-02T07:05:33;101.30;;;50.40;;
3755;SDS011;1893;52.526;13.360;2024-03-02T07:07:58;97.13;;;48.30;;
3755;SDS011;1893;52.526;13.360;2024-03-02T07:10:24;108.60;;;51.10;;
3755;SDS011;1893;52.526;13.360;2024-03-02T07:12:50;103.70;;;49.40;;
3755;SDS011;1893;52.526;13.360;2024-03-02T07:15:15;89.83;;;49.93;;
3755;SDS011;1893;52.526;13.360;2024-03-02T07:17:55;95.03;;;50.90;;
3755;SDS011;1893;52.526;13.360;2024-03-02T07:20:20;95.03;;;48.10;;
3755;SDS011;1893;52.526;13.360;2024-03-02T07:22:46;100.60;;;47.70;;
3755;SDS011;1893;52.526;13.360;2024-03-02T07:25:12;101.27;;;49.97;;
3755;SDS011;1893;52.526;13.360;2024-03-02T07:27:38;96.17;;;51.17;;
3755;SDS011;1893;52.526;13.360;2024-03-02T07:30:04;90.17;;;46.13;;
3755;SDS011;1893;52.526;13.360;2024-03-02T07:32:31;97.87;;;48.37;;
3755;SDS011;1893;52.526;13.360;2024-03-02T07:34:56;84.80;;;45.77;;
3755;SDS011;1893;52.526;13.360;2024-03-02T07:37:22;91.93;;;48.73;;
3755;SDS011;1893;52.526;13.360;2024-03-02T07:39:48;87.23;;;48.53;;
3755;SDS011;1893;52.526;13.360;2024-03-02T07:42:14;88.43;;;45.07;;
3755;SDS011;1893;52.526;13.360;2024-03-02T07:44:40;93.10;;;47.70;;
3755;SDS011;1893;52.526;13.360;2024-03-02T07:47:06;87.43;;;45.87;;
3755;SDS011;1893;52.526;13.360;2024-03-02T07:49:31;96.23;;;46.43;;
3755;SDS011;1893;52.526;13.360;2024-03-02T07:51:57;92.00;;;46.53;;
3755;SDS011;1893;52.526;13.360;2024-03-02T07:54:23;91.67;;;47.20;;
3755;SDS011;1893;52.526;13.360;2024-03-02T07:56:49;106.73;;;50.30;;
3755;SDS011;1893;52.526;13.360;2024-03-02T07:59:15;94.90;;;46.03;;
3755;SDS011;1893;52.526;13.360;2024-03-02T08:01:40;88.20;;;44.67;;
3755;SDS011;1893;52.526;13.360;2024-03-02T08:04:06;89.57;;;46.27;;
3755;SDS011;1893;52.526;13.360;2024-03-02T08:06:32;80.47;;;43.17;;
3755;SDS011;1893;52.526;13.360;2024-03-02T08:08:58;84.17;;;43.80;;
3755;SDS011;1893;52.526;13.360;2024-03-02T08:11:26;78.27;;;42.70;;
3755;SDS011;1893;52.526;13.360;2024-03-02T08:13:56;77.90;;;41.43;;
3755;SDS011;1893;52.526;13.360;2024-03-02T08:16:22;79.20;;;44.87;;
3755;SDS011;1893;52.526;13.360;2024-03-02T08:18:49;82.03;;;43.27;;
3755;SDS011;1893;52.526;13.360;2024-03-02T08:21:15;77.17;;;43.07;;
3755;SDS011;1893;52.526;13.360;2024-03-02T08:23:41;82.57;;;41.90;;
3755;SDS011;1893;52.526;13.360;2024-03-02T08:26:08;73.57;;;40.90;;
3755;SDS011;1893;52.526;13.360;2024-03-02T08:28:34;87.43;;;42.90;;
3755;SDS011;1893;52.526;13.360;2024-03-02T08:31:00;76.27;;;42.30;;
3755;SDS011;1893;52.526;13.360;2024-03-02T08:33:26;77.43;;;44.20;;
3755;SDS011;1893;52.526;13.360;2024-03-02T08:35:51;85.63;;;44.90;;
3755;SDS011;1893;52.526;13.360;2024-03-02T08:38:17;79.30;;;45.03;;
3755;SDS011;1893;52.526;13.360;2024-03-02T08:40:43;89.53;;;45.77;;
3755;SDS011;1893;52.526;13.360;2024-03-02T08:43:09;89.37;;;44.67;;
3755;SDS011;1893;52.526;13.360;2024-03-02T08:45:35;81.83;;;42.23;;
3755;SDS011;1893;52.526;13.360;2024-03-02T08:48:01;86.30;;;43.70;;
3755;SDS011;1893;52.526;13.360;2024-03-02T08:50:26;76.57;;;39.70;;
3755;SDS011;1893;52.526;13.360;2024-03-02T08:52:52;77.77;;;41.60;;
3755;SDS011;1893;52.526;13.360;2024-03-02T08:55:17;72.30;;;40.60;;
3755;SDS011;1893;52.526;13.360;2024-03-02T08:57:43;72.13;;;39.83;;
3755;SDS011;1893;52.526;13.360;2024-03-02T09:00:09;69.47;;;38.73;;
3755;SDS011;1893;52.526;13.360;2024-03-02T09:02:35;63.80;;;36.83;;
3755;SDS011;1893;52.526;13.360;2024-03-02T09:05:01;70.43;;;40.20;;
3755;SDS011;1893;52.526;13.360;2024-03-02T09:07:26;73.43;;;39.80;;
3755;SDS011;1893;52.526;13.360;2024-03-02T09:09:52;85.90;;;42.00;;
3755;SDS011;1893;52.526;13.360;2024-03-02T09:12:17;67.20;;;39.40;;
3755;SDS011;1893;52.526;13.360;2024-03-02T09:14:44;72.67;;;40.57;;
3755;SDS011;1893;52.526;13.360;2024-03-02T09:17:10;69.57;;;37.90;;
3755;SDS011;1893;52.526;13.360;2024-03-02T09:19:36;76.00;;;40.30;;
3755;SDS011;1893;52.526;13.360;2024-03-02T09:22:03;63.63;;;36.90;;
3755;SDS011;1893;52.526;13.360;2024-03-02T09:24:30;64.63;;;39.43;;
3755;SDS011;1893;52.526;13.360;2024-03-02T09:26:56;59.57;;;37.40;;
3755;SDS011;1893;52.526;13.360;2024-03-02T09:29:22;69.23;;;38.30;;
3755;SDS011;1893;52.526;13.360;2024-03-02T09:31:47;66.33;;;39.20;;
3755;SDS011;1893;52.526;13.360;2024-03-02T09:34:14;66.63;;;36.93;;
3755;SDS011;1893;52.526;13.360;2024-03-02T09:36:40;72.53;;;39.67;;
3755;SDS011;1893;52.526;13.360;2024-03-02T09:39:09;66.50;;;39.93;;
3755;SDS011;1893;52.526;13.360;2024-03-02T09:41:38;68.63;;;36.63;;
3755;SDS011;1893;52.526;13.360;2024-03-02T09:44:04;65.53;;;39.77;;
3755;SDS011;1893;52.526;13.360;2024-03-02T09:46:30;74.20;;;41.00;;
3755;SDS011;1893;52.526;13.360;2024-03-02T09:48:56;67.97;;;36.80;;
3755;SDS011;1893;52.526;13.360;2024-03-02T09:51:22;65.43;;;38.13;;
3755;SDS011;1893;52.526;13.360;2024-03-02T09:53:48;63.77;;;35.47;;
3755;SDS011;1893;52.526;13.360;2024-03-02T09:56:14;64.97;;;39.13;;
3755;SDS011;1893;52.526;13.360;2024-03-02T09:58:44;59.37;;;35.33;;
3755;SDS011;1893;52.526;13.360;2024-03-02T10:01:09;58.97;;;33.20;;
3755;SDS011;1893;52.526;13.360;2024-03-02T10:03:36;65.70;;;35.27;;
3755;SDS011;1893;52.526;13.360;2024-03-02T10:08:47;59.60;;;35.60;;
3755;SDS011;1893;52.526;13.360;2024-03-02T10:11:34;61.27;;;35.50;;
3755;SDS011;1893;52.526;13.360;2024-03-02T10:14:09;51.90;;;33.50;;
3755;SDS011;1893;52.526;13.360;2024-03-02T10:16:37;64.80;;;34.67;;
3755;SDS011;1893;52.526;13.360;2024-03-02T10:19:22;54.87;;;30.90;;
3755;SDS011;1893;52.526;13.360;2024-03-02T10:21:49;50.07;;;30.43;;
3755;SDS011;1893;52.526;13.360;2024-03-02T10:24:19;52.33;;;32.70;;
3755;SDS011;1893;52.526;13.360;2024-03-02T10:26:48;59.70;;;33.37;;
3755;SDS011;1893;52.526;13.360;2024-03-02T10:29:14;50.63;;;30.63;;
3755;SDS011;1893;52.526;13.360;2024-03-02T10:31:41;53.37;;;33.20;;
3755;SDS011;1893;52.526;13.360;2024-03-02T10:34:09;52.13;;;32.70;;
3755;SDS011;1893;52.526;13.360;2024-03-02T10:36:35;46.60;;;29.50;;
3755;SDS011;1893;52.526;13.360;2024-03-02T10:39:03;50.57;;;30.50;;
3755;SDS011;1893;52.526;13.360;2024-03-02T10:41:37;47.83;;;29.33;;
3755;SDS011;1893;52.526;13.360;2024-03-02T10:44:04;47.80;;;28.60;;
3755;SDS011;1893;52.526;13.360;2024-03-02T10:46:32;48.57;;;29.37;;
3755;SDS011;1893;52.526;13.360;2024-03-02T10:49:02;38.63;;;26.03;;
3755;SDS011;1893;52.526;13.360;2024-03-02T10:51:29;42.60;;;26.87;;
3755;SDS011;1893;52.526;13.360;2024-03-02T10:54:01;43.20;;;27.10;;
3755;SDS011;1893;52.526;13.360;2024-03-02T10:56:32;41.40;;;26.17;;
3755;SDS011;1893;52.526;13.360;2024-03-02T11:01:47;40.87;;;26.30;;
3755;SDS011;1893;52.526;13.360;2024-03-02T11:04:14;41.10;;;26.53;;
3755;SDS011;1893;52.526;13.360;2024-03-02T11:06:43;36.97;;;25.27;;
3755;SDS011;1893;52.526;13.360;2024-03-02T11:09:13;37.33;;;24.07;;
3755;SDS011;1893;52.526;13.360;2024-03-02T11:11:42;37.10;;;23.83;;
3755;SDS011;1893;52.526;13.360;2024-03-02T11:14:13;35.03;;;22.73;;
3755;SDS011;1893;52.526;13.360;2024-03-02T11:16:41;37.30;;;23.40;;
3755;SDS011;1893;52.526;13.360;2024-03-02T11:19:09;32.87;;;23.70;;
3755;SDS011;1893;52.526;13.360;2024-03-02T11:21:38;37.53;;;24.43;;
3755;SDS011;1893;52.526;13.360;2024-03-02T11:26:49;37.00;;;22.83;;
3755;SDS011;1893;52.526;13.360;2024-03-02T11:32:00;35.37;;;23.00;;
3755;SDS011;1893;52.526;13.360;2024-03-02T11:34:30;36.93;;;22.63;;
3755;SDS011;1893;52.526;13.360;2024-03-02T11:37:03;33.00;;;23.17;;
3755;SDS011;1893;52.526;13.360;2024-03-02T11:39:29;33.80;;;22.27;;
3755;SDS011;1893;52.526;13.360;2024-03-02T11:41:56;33.10;;;21.93;;
3755;SDS011;1893;52.526;13.360;2024-03-02T11:44:25;34.40;;;22.23;;
3755;SDS011;1893;52.526;13.360;2024-03-02T11:47:00;30.83;;;19.77;;
3755;SDS011;1893;52.526;13.360;2024-03-02T11:52:15;30.10;;;20.60;;
3755;SDS011;1893;52.526;13.360;2024-03-02T11:54:43;33.20;;;22.17;;
3755;SDS011;1893;52.526;13.360;2024-03-02T11:57:14;29.33;;;21.20;;
3755;SDS011;1893;52.526;13.360;2024-03-02T11:59:43;32.57;;;21.80;;
3755;SDS011;1893;52.526;13.360;2024-03-02T12:02:14;33.20;;;20.63;;
3755;SDS011;1893;52.526;13.360;2024-03-02T12:04:44;32.10;;;21.97;;
3755;SDS011;1893;52.526;13.360;2024-03-02T12:07:10;35.37;;;23.40;;
3755;SDS011;1893;52.526;13.360;2024-03-02T12:09:37;36.50;;;22.07;;
3755;SDS011;1893;52.526;13.360;2024-03-02T12:14:32;29.80;;;21.40;;
3755;SDS011;1893;52.526;13.360;2024-03-02T12:16:59;36.57;;;20.97;;
3755;SDS011;1893;52.526;13.360;2024-03-02T12:19:25;35.30;;;22.27;;
3755;SDS011;1893;52.526;13.360;2024-03-02T12:21:52;31.57;;;20.63;;
3755;SDS011;1893;52.526;13.360;2024-03-02T12:24:18;36.37;;;22.47;;
3755;SDS011;1893;52.526;13.360;2024-03-02T12:26:44;33.37;;;21.70;;
3755;SDS011;1893;52.526;13.360;2024-03-02T12:29:11;36.43;;;23.17;;
3755;SDS011;1893;52.526;13.360;2024-03-02T12:31:37;31.90;;;21.30;;
3755;SDS011;1893;52.526;13.360;2024-03-02T12:34:04;36.07;;;23.20;;
3755;SDS011;1893;52.526;13.360;2024-03-02T12:36:30;35.07;;;23.43;;
3755;SDS011;1893;52.526;13.360;2024-03-02T12:39:01;29.40;;;20.77;;
3755;SDS011;1893;52.526;13.360;2024-03-02T12:41:27;29.97;;;19.93;;
3755;SDS011;1893;52.526;13.360;2024-03-02T12:43:53;34.60;;;23.43;;
3755;SDS011;1893;52.526;13.360;2024-03-02T12:46:19;35.73;;;23.10;;
3755;SDS011;1893;52.526;13.360;2024-03-02T12:48:44;35.63;;;23.70;;
3755;SDS011;1893;52.526;13.360;2024-03-02T12:51:11;40.43;;;23.40;;
3755;SDS011;1893;52.526;13.360;2024-03-02T12:53:37;35.13;;;23.03;;
3755;SDS011;1893;52.526;13.360;2024-03-02T12:56:02;35.37;;;21.87;;
3755;SDS011;1893;52.526;13.360;2024-03-02T12:58:29;33.73;;;23.33;;
3755;SDS011;1893;52.526;13.360;2024-03-02T13:01:05;34.20;;;22.70;;
3755;SDS011;1893;52.526;13.360;2024-03-02T13:03:34;30.23;;;22.07;;
3755;SDS011;1893;52.526;13.360;2024-03-02T13:06:04;36.70;;;22.97;;
3755;SDS011;1893;52.526;13.360;2024-03-02T13:08:31;27.80;;;21.17;;
3755;SDS011;1893;52.526;13.360;2024-03-02T13:10:57;30.60;;;20.83;;
3755;SDS011;1893;52.526;13.360;2024-03-02T13:13:23;30.27;;;22.30;;
3755;SDS011;1893;52.526;13.360;2024-03-02T13:15:49;26.70;;;20.77;;
3755;SDS011;1893;52.526;13.360;2024-03-02T13:18:14;25.60;;;20.90;;
3755;SDS011;1893;52.526;13.360;2024-03-02T13:20:42;27.60;;;20.50;;
3755;SDS011;1893;52.526;13.360;2024-03-02T13:23:08;33.83;;;22.40;;
3755;SDS011;1893;52.526;13.360;2024-03-02T13:25:34;28.67;;;21.17;;
3755;SDS011;1893;52.526;13.360;2024-03-02T13:27:59;32.23;;;22.20;;
3755;SDS011;1893;52.526;13.360;2024-03-02T13:30:25;31.47;;;23.37;;
3755;SDS011;1893;52.526;13.360;2024-03-02T13:32:51;28.87;;;20.40;;
3755;SDS011;1893;52.526;13.360;2024-03-02T13:35:18;28.70;;;20.43;;
3755;SDS011;1893;52.526;13.360;2024-03-02T13:37:43;28.77;;;18.27;;
3755;SDS011;1893;52.526;13.360;2024-03-02T13:40:09;23.63;;;19.03;;
3755;SDS011;1893;52.526;13.360;2024-03-02T13:42:39;28.93;;;20.87;;
3755;SDS011;1893;52.526;13.360;2024-03-02T13:45:05;29.27;;;20.53;;
3755;SDS011;1893;52.526;13.360;2024-03-02T13:47:31;29.50;;;19.87;;
3755;SDS011;1893;52.526;13.360;2024-03-02T13:49:57;26.03;;;18.27;;
3755;SDS011;1893;52.526;13.360;2024-03-02T13:52:23;25.10;;;17.87;;
3755;SDS011;1893;52.526;13.360;2024-03-02T13:54:50;23.50;;;17.80;;
3755;SDS011;1893;52.526;13.360;2024-03-02T13:57:17;20.83;;;17.10;;
3755;SDS011;1893;52.526;13.360;2024-03-02T13:59:44;22.80;;;17.67;;
3755;SDS011;1893;52.526;13.360;2024-03-02T14:02:11;23.40;;;18.23;;
3755;SDS011;1893;52.526;13.360;2024-03-02T14:04:37;22.87;;;17.80;;
3755;SDS011;1893;52.526;13.360;2024-03-02T14:07:04;29.03;;;17.30;;
3755;SDS011;1893;52.526;13.360;2024-03-02T14:09:33;25.23;;;17.70;;
3755;SDS011;1893;52.526;13.360;2024-03-02T14:11:59;25.80;;;18.57;;
3755;SDS011;1893;52.526;13.360;2024-03-02T14:14:27;22.97;;;16.67;;
3755;SDS011;1893;52.526;13.360;2024-03-02T14:16:57;23.30;;;17.50;;
3755;SDS011;1893;52.526;13.360;2024-03-02T14:19:25;25.80;;;15.30;;
3755;SDS011;1893;52.526;13.360;2024-03-02T14:21:52;20.50;;;14.60;;
3755;SDS011;1893;52.526;13.360;2024-03-02T14:24:17;21.23;;;16.00;;
3755;SDS011;1893;52.526;13.360;2024-03-02T14:26:43;20.03;;;15.37;;
3755;SDS011;1893;52.526;13.360;2024-03-02T14:29:09;29.47;;;15.60;;
3755;SDS011;1893;52.526;13.360;2024-03-02T14:31:34;20.20;;;14.23;;
3755;SDS011;1893;52.526;13.360;2024-03-02T14:34:00;25.93;;;14.53;;
3755;SDS011;1893;52.526;13.360;2024-03-02T14:36:26;19.37;;;12.50;;
3755;SDS011;1893;52.526;13.360;2024-03-02T14:38:52;18.97;;;13.00;;
3755;SDS011;1893;52.526;13.360;2024-03-02T14:41:19;18.80;;;13.67;;
3755;SDS011;1893;52.526;13.360;2024-03-02T14:43:44;21.63;;;12.60;;
3755;SDS011;1893;52.526;13.360;2024-03-02T14:46:10;18.87;;;12.10;;
3755;SDS011;1893;52.526;13.360;2024-03-02T14:48:37;17.30;;;12.67;;